createdAt,value
2022-11-12T00:01:01.761Z,6.55
2022-11-12T00:03:28.303Z,6.53
2022-11-12T00:05:54.937Z,6.51
2022-11-12T00:08:22.056Z,6.43
2022-11-12T00:10:48.840Z,6.44
2022-11-12T00:13:15.937Z,6.40
2022-11-12T00:15:42.629Z,6.43
2022-11-12T00:18:09.228Z,6.42
2022-11-12T00:20:35.850Z,6.42
2022-11-12T00:23:05.152Z,6.39
2022-11-12T00:25:31.839Z,6.29
2022-11-12T00:28:05.494Z,6.31
2022-11-12T00:30:36.568Z,6.27
2022-11-12T00:33:06.221Z,6.23
2022-11-12T00:35:33.538Z,6.22
2022-11-12T00:38:00.822Z,6.13
2022-11-12T00:40:27.845Z,6.17
2022-11-12T00:42:54.708Z,6.18
2022-11-12T00:45:21.903Z,6.19
2022-11-12T00:47:48.879Z,6.16
2022-11-12T00:50:16.298Z,6.14
2022-11-12T00:52:45.455Z,6.12
2022-11-12T00:55:11.993Z,6.10
2022-11-12T00:57:38.747Z,6.11
2022-11-12T01:00:09.475Z,6.12
2022-11-12T01:02:42.334Z,6.08
2022-11-12T01:05:12.308Z,6.10
2022-11-12T01:07:41.721Z,6.08
2022-11-12T01:10:09.664Z,6.03
2022-11-12T01:12:37.025Z,5.98
2022-11-12T01:15:05.900Z,6.04
2022-11-12T01:17:32.988Z,5.99
2022-11-12T01:19:59.709Z,5.99
2022-11-12T01:22:26.186Z,6.00
2022-11-12T01:24:55.017Z,5.96
2022-11-12T01:27:21.748Z,5.95
2022-11-12T01:29:48.543Z,5.97
2022-11-12T01:32:15.096Z,5.95
2022-11-12T01:34:41.632Z,5.90
2022-11-12T01:37:09.270Z,5.93
2022-11-12T01:39:38.183Z,5.89
2022-11-12T01:42:04.720Z,5.85
2022-11-12T01:44:35.186Z,5.86
2022-11-12T01:47:13.490Z,5.90
2022-11-12T01:50:06.388Z,5.91
2022-11-12T01:52:45.220Z,5.83
2022-11-12T01:55:15.841Z,5.84
2022-11-12T01:57:50.056Z,5.82
2022-11-12T02:00:17.621Z,5.78
2022-11-12T02:02:49.826Z,5.75
2022-11-12T02:05:18.272Z,5.69
2022-11-12T02:07:46.781Z,5.65
2022-11-12T02:10:14.693Z,5.64
2022-11-12T02:13:01.019Z,5.67
2022-11-12T02:15:27.896Z,5.59
2022-11-12T02:17:54.571Z,5.59
2022-11-12T02:20:21.316Z,5.59
2022-11-12T02:22:47.861Z,5.54
2022-11-12T02:25:22.412Z,5.58
2022-11-12T02:27:52.517Z,5.59
2022-11-12T02:30:30.573Z,5.52
2022-11-12T02:32:59.751Z,5.57
2022-11-12T02:35:26.431Z,5.49
2022-11-12T02:37:53.349Z,5.56
2022-11-12T02:40:20.110Z,5.55
2022-11-12T02:42:48.919Z,5.56
2022-11-12T02:45:16.602Z,5.54
2022-11-12T02:47:43.283Z,5.48
2022-11-12T02:50:10.925Z,5.52
2022-11-12T02:52:37.633Z,5.50
2022-11-12T02:55:04.495Z,5.52
2022-11-12T02:57:31.073Z,5.48
2022-11-12T02:59:57.576Z,5.44
2022-11-12T03:02:24.174Z,5.45
2022-11-12T03:04:50.726Z,5.43
2022-11-12T03:07:17.463Z,5.40
2022-11-12T03:09:44.057Z,5.37
2022-11-12T03:12:10.697Z,5.37
2022-11-12T03:14:37.237Z,5.36
2022-11-12T03:17:06.138Z,5.29
2022-11-12T03:19:32.706Z,5.32
2022-11-12T03:22:01.386Z,5.31
2022-11-12T03:24:28.230Z,5.33
2022-11-12T03:26:57.292Z,5.30
2022-11-12T03:29:23.810Z,5.28
2022-11-12T03:31:55.572Z,5.34
2022-11-12T03:34:22.162Z,5.27
2022-11-12T03:36:48.699Z,5.28
2022-11-12T03:39:15.275Z,5.28
2022-11-12T03:41:41.824Z,5.26
2022-11-12T03:44:08.331Z,5.28
2022-11-12T03:46:44.024Z,5.27
2022-11-12T03:49:10.955Z,5.22
2022-11-12T03:51:39.820Z,5.26
2022-11-12T03:54:06.616Z,5.22
2022-11-12T03:56:33.126Z,5.24
2022-11-12T03:58:59.775Z,5.14
2022-11-12T04:01:26.491Z,5.19
2022-11-12T04:03:52.974Z,5.21
2022-11-12T04:06:38.100Z,5.23
2022-11-12T04:09:04.841Z,5.25
2022-11-12T04:11:34.352Z,5.26
2022-11-12T04:14:01.032Z,5.28
2022-11-12T04:16:46.563Z,5.24
2022-11-12T04:19:32.152Z,5.28
2022-11-12T04:22:00.604Z,5.25
2022-11-12T04:24:55.222Z,5.32
2022-11-12T04:27:28.010Z,5.32
2022-11-12T04:30:16.178Z,5.29
2022-11-12T04:32:54.861Z,5.35
2022-11-12T04:35:26.098Z,5.27
2022-11-12T04:37:55.249Z,5.31
2022-11-12T04:40:45.946Z,5.32
2022-11-12T04:43:34.361Z,5.30
2022-11-12T04:46:02.573Z,5.29
2022-11-12T04:48:29.360Z,5.24
2022-11-12T04:51:01.715Z,5.28
2022-11-12T04:53:29.583Z,5.32
2022-11-12T04:55:58.243Z,5.33
2022-11-12T04:58:25.455Z,5.32
2022-11-12T05:00:52.359Z,5.32
2022-11-12T05:03:19.005Z,5.30
2022-11-12T05:05:45.538Z,5.28
2022-11-12T05:08:12.006Z,5.20
2022-11-12T05:10:38.485Z,5.19
2022-11-12T05:13:05.001Z,5.17
2022-11-12T05:15:31.513Z,5.17
2022-11-12T05:18:00.253Z,5.19
2022-11-12T05:20:26.802Z,5.18
2022-11-12T05:23:08.281Z,5.21
2022-11-12T05:25:35.898Z,5.22
2022-11-12T05:28:02.994Z,5.26
2022-11-12T05:30:29.498Z,5.27
2022-11-12T05:32:56.319Z,5.25
2022-11-12T05:35:22.833Z,5.30
2022-11-12T05:37:49.341Z,5.34
2022-11-12T05:40:15.920Z,5.35
2022-11-12T05:42:42.408Z,5.34
2022-11-12T05:45:11.801Z,5.36
2022-11-12T05:47:38.361Z,5.35
2022-11-12T05:50:05.287Z,5.36
2022-11-12T05:52:31.824Z,5.37
2022-11-12T05:54:58.368Z,5.37
2022-11-12T05:57:27.499Z,5.32
2022-11-12T05:59:53.978Z,5.28
2022-11-12T06:02:21.881Z,5.30
2022-11-12T06:04:48.404Z,5.37
2022-11-12T06:07:15.033Z,5.31
2022-11-12T06:09:41.578Z,5.34
2022-11-12T06:12:10.431Z,5.36
2022-11-12T06:14:37.359Z,5.32
2022-11-12T06:17:03.908Z,5.32
2022-11-12T06:19:30.456Z,5.30
2022-11-12T06:21:59.230Z,5.28
2022-11-12T06:24:27.493Z,5.26
2022-11-12T06:26:57.308Z,5.23
2022-11-12T06:29:26.153Z,5.24
2022-11-12T06:31:52.717Z,5.24
2022-11-12T06:34:19.266Z,5.22
2022-11-12T06:36:48.810Z,5.22
2022-11-12T06:39:15.308Z,5.26
2022-11-12T06:41:44.216Z,5.22
2022-11-12T06:44:14.674Z,5.27
2022-11-12T06:46:44.368Z,5.27
2022-11-12T06:49:10.905Z,5.28
2022-11-12T06:51:37.453Z,5.31
2022-11-12T06:54:04.182Z,5.27
2022-11-12T06:56:30.708Z,5.26
2022-11-12T06:58:57.378Z,5.29
2022-11-12T07:01:23.955Z,5.32
2022-11-12T07:03:54.432Z,5.31
2022-11-12T07:06:21.135Z,5.29
2022-11-12T07:08:49.151Z,5.34
2022-11-12T07:11:17.394Z,5.36
2022-11-12T07:13:44.552Z,5.38
2022-11-12T07:16:18.498Z,5.35
2022-11-12T07:18:48.280Z,5.33
2022-11-12T07:21:20.464Z,5.39
2022-11-12T07:23:48.103Z,5.38
2022-11-12T07:26:17.922Z,5.39
2022-11-12T07:28:45.944Z,5.38
2022-11-12T07:31:16.864Z,5.38
2022-11-12T07:33:44.723Z,5.32
2022-11-12T07:36:14.840Z,5.44
2022-11-12T07:38:50.237Z,5.43
2022-11-12T07:41:21.712Z,5.45
2022-11-12T07:43:50.407Z,5.42
2022-11-12T07:46:19.572Z,5.43
2022-11-12T07:48:46.932Z,5.48
2022-11-12T07:51:15.352Z,5.50
2022-11-12T07:53:57.751Z,5.46
2022-11-12T07:56:26.873Z,5.50
2022-11-12T07:58:53.388Z,5.57
2022-11-12T08:01:32.090Z,5.61
2022-11-12T08:04:04.888Z,5.66
2022-11-12T08:06:32.582Z,5.64
2022-11-12T08:09:01.855Z,5.71
2022-11-12T08:11:28.441Z,5.74
2022-11-12T08:13:55.038Z,5.77
2022-11-12T08:16:24.221Z,5.77
2022-11-12T08:18:50.930Z,5.81
2022-11-12T08:21:18.426Z,5.90
2022-11-12T08:23:48.315Z,5.93
2022-11-12T08:26:21.738Z,5.96
2022-11-12T08:28:50.551Z,6.00
2022-11-12T08:31:19.817Z,6.08
2022-11-12T08:33:46.412Z,6.11
2022-11-12T08:36:15.229Z,6.18
2022-11-12T08:38:42.838Z,6.19
2022-11-12T08:41:14.244Z,6.29
2022-11-12T08:43:42.122Z,6.41
2022-11-12T08:46:08.946Z,6.48
2022-11-12T08:48:35.956Z,6.46
2022-11-12T08:51:05.893Z,6.61
2022-11-12T08:53:32.956Z,6.65
2022-11-12T08:55:59.894Z,6.75
2022-11-12T08:58:27.050Z,6.82
2022-11-12T09:00:54.346Z,6.84
2022-11-12T09:03:23.385Z,7.03
2022-11-12T09:05:53.794Z,7.32
2022-11-12T09:08:23.651Z,7.86
2022-11-12T09:10:51.462Z,8.36
2022-11-12T09:13:20.382Z,8.68
2022-11-12T09:15:47.506Z,8.89
2022-11-12T09:18:16.422Z,9.11
2022-11-12T09:20:43.165Z,9.21
2022-11-12T09:23:12.028Z,9.41
2022-11-12T09:25:42.121Z,9.60
2022-11-12T09:28:17.850Z,9.80
2022-11-12T09:30:49.660Z,9.95
2022-11-12T09:33:34.376Z,10.16
2022-11-12T09:36:02.295Z,10.28
2022-11-12T09:38:31.553Z,10.36
2022-11-12T09:41:22.512Z,10.45
2022-11-12T09:43:56.988Z,10.50
2022-11-12T09:46:41.892Z,10.56
2022-11-12T09:49:17.351Z,10.57
2022-11-12T09:51:48.789Z,10.63
2022-11-12T09:54:23.592Z,10.67
2022-11-12T09:56:54.039Z,10.63
2022-11-12T09:59:22.644Z,10.73
2022-11-12T10:01:55.033Z,10.84
2022-11-12T10:04:26.267Z,10.93
2022-11-12T10:07:09.314Z,11.00
2022-11-12T10:09:58.893Z,11.12
2022-11-12T10:12:44.423Z,11.24
2022-11-12T10:16:06.872Z,11.37
2022-11-12T10:18:51.715Z,11.47
2022-11-12T10:21:45.655Z,11.59
2022-11-12T10:24:14.975Z,11.71
2022-11-12T10:26:41.538Z,11.74
2022-11-12T10:29:11.101Z,11.92
2022-11-12T10:31:38.959Z,11.95
2022-11-12T10:34:17.173Z,11.99
2022-11-12T10:36:48.875Z,12.09
2022-11-12T10:39:36.638Z,12.19
2022-11-12T10:42:08.295Z,12.27
2022-11-12T10:44:35.087Z,12.35
2022-11-12T10:47:25.569Z,12.43
2022-11-12T10:50:14.129Z,12.54
2022-11-12T10:52:53.716Z,12.66
2022-11-12T10:55:26.631Z,12.75
2022-11-12T10:58:09.936Z,12.87
2022-11-12T11:00:38.498Z,13.02
2022-11-12T11:03:25.738Z,13.14
2022-11-12T11:06:03.056Z,13.16
2022-11-12T11:08:47.977Z,13.40
2022-11-12T11:11:21.745Z,13.55
2022-11-12T11:13:55.366Z,13.64
2022-11-12T11:16:27.970Z,13.75
2022-11-12T11:18:58.088Z,13.95
2022-11-12T11:21:46.362Z,14.12
2022-11-12T11:24:30.017Z,14.29
2022-11-12T11:27:05.588Z,14.49
2022-11-12T11:29:50.512Z,14.66
2022-11-12T11:32:55.461Z,14.84
2022-11-12T11:35:37.101Z,14.89
2022-11-12T11:38:27.955Z,14.98
2022-11-12T11:41:19.720Z,15.06
2022-11-12T11:44:24.536Z,15.18
2022-11-12T11:47:34.283Z,15.35
2022-11-12T11:50:25.683Z,15.42
2022-11-12T11:53:09.233Z,15.57
2022-11-12T11:55:42.432Z,15.66
2022-11-12T11:58:49.885Z,15.80
2022-11-12T12:01:35.269Z,15.89
2022-11-12T12:04:33.891Z,15.95
2022-11-12T12:07:12.535Z,16.09
2022-11-12T12:09:53.018Z,16.05
2022-11-12T12:12:26.714Z,16.21
2022-11-12T12:15:17.810Z,16.23
2022-11-12T12:18:06.730Z,16.21
2022-11-12T12:20:43.429Z,16.29
2022-11-12T12:23:23.610Z,16.44
2022-11-12T12:25:56.115Z,16.47
2022-11-12T12:28:52.659Z,16.44
2022-11-12T12:31:24.830Z,16.47
2022-11-12T12:33:56.828Z,16.55
2022-11-12T12:36:39.926Z,16.63
2022-11-12T12:39:34.840Z,16.58
2022-11-12T12:42:22.147Z,16.56
2022-11-12T12:45:05.049Z,16.50
2022-11-12T12:47:38.301Z,16.47
2022-11-12T12:50:11.877Z,16.40
2022-11-12T12:53:15.639Z,16.42
2022-11-12T12:55:46.921Z,16.54
2022-11-12T12:58:22.132Z,16.51
2022-11-12T13:00:51.431Z,16.58
2022-11-12T13:03:42.864Z,16.56
2022-11-12T13:06:22.098Z,16.50
2022-11-12T13:09:03.019Z,16.43
2022-11-12T13:12:00.429Z,16.37
2022-11-12T13:14:36.004Z,16.28
2022-11-12T13:17:08.509Z,16.31
2022-11-12T13:19:45.607Z,16.22
2022-11-12T13:22:18.465Z,16.22
2022-11-12T13:25:00.315Z,16.20
2022-11-12T13:27:45.106Z,16.21
2022-11-12T13:30:14.365Z,16.16
2022-11-12T13:32:44.109Z,16.15
2022-11-12T13:35:22.995Z,16.08
2022-11-12T13:37:52.756Z,16.05
2022-11-12T13:40:19.254Z,16.04
2022-11-12T13:42:49.218Z,15.99
2022-11-12T13:45:22.394Z,15.98
2022-11-12T13:47:49.164Z,15.98
2022-11-12T13:50:24.962Z,15.98
2022-11-12T13:52:54.709Z,15.98
2022-11-12T13:55:22.734Z,15.98
2022-11-12T13:57:54.729Z,15.94
2022-11-12T14:00:28.965Z,15.90
2022-11-12T14:03:02.420Z,15.80
2022-11-12T14:05:33.648Z,15.80
2022-11-12T14:08:20.718Z,15.79
2022-11-12T14:11:11.310Z,15.71
2022-11-12T14:13:56.274Z,15.70
2022-11-12T14:16:35.243Z,15.65
2022-11-12T14:19:20.901Z,15.61
2022-11-12T14:22:02.135Z,15.54
2022-11-12T14:24:28.939Z,15.58
2022-11-12T14:26:57.859Z,15.55
2022-11-12T14:29:26.754Z,15.51
2022-11-12T14:32:02.296Z,15.49
2022-11-12T14:34:33.642Z,15.46
2022-11-12T14:37:01.297Z,15.41
2022-11-12T14:39:31.650Z,15.35
2022-11-12T14:42:01.574Z,15.44
2022-11-12T14:44:36.941Z,15.30
2022-11-12T14:47:04.413Z,15.21
2022-11-12T14:49:44.856Z,15.22
2022-11-12T14:52:26.747Z,15.15
2022-11-12T14:55:00.824Z,15.09
2022-11-12T14:57:30.061Z,14.96
2022-11-12T14:59:57.402Z,15.01
2022-11-12T15:02:47.289Z,14.95
2022-11-12T15:05:21.050Z,14.92
2022-11-12T15:08:02.514Z,14.88
2022-11-12T15:10:31.985Z,14.80
2022-11-12T15:13:24.451Z,14.78
2022-11-12T15:15:55.933Z,14.73
2022-11-12T15:18:29.560Z,14.65
2022-11-12T15:21:19.395Z,14.61
2022-11-12T15:24:03.694Z,14.52
2022-11-12T15:26:36.396Z,14.72
2022-11-12T15:29:27.741Z,14.49
2022-11-12T15:32:01.136Z,14.37
2022-11-12T15:34:48.058Z,14.34
2022-11-12T15:37:19.623Z,14.25
2022-11-12T15:39:52.673Z,14.18
2022-11-12T15:42:27.838Z,14.10
2022-11-12T15:45:00.475Z,14.01
2022-11-12T15:47:27.292Z,13.93
2022-11-12T15:49:56.618Z,13.84
2022-11-12T15:52:23.307Z,13.76
2022-11-12T15:54:50.141Z,13.67
2022-11-12T15:57:29.093Z,13.61
2022-11-12T16:00:07.893Z,13.51
2022-11-12T16:02:35.511Z,13.79
2022-11-12T16:05:04.684Z,13.53
2022-11-12T16:07:33.438Z,13.36
2022-11-12T16:10:00.160Z,13.46
2022-11-12T16:12:27.625Z,13.29
2022-11-12T16:14:54.367Z,13.19
2022-11-12T16:17:21.305Z,13.12
2022-11-12T16:19:47.902Z,13.06
2022-11-12T16:22:14.408Z,12.96
2022-11-12T16:24:44.146Z,12.91
2022-11-12T16:27:16.856Z,12.84
2022-11-12T16:29:45.518Z,12.76
2022-11-12T16:32:13.966Z,12.70
2022-11-12T16:34:48.218Z,12.62
2022-11-12T16:37:16.054Z,12.56
2022-11-12T16:39:42.592Z,12.78
2022-11-12T16:42:12.593Z,12.54
2022-11-12T16:44:39.099Z,12.44
2022-11-12T16:47:05.670Z,12.42
2022-11-12T16:49:35.891Z,12.32
2022-11-12T16:52:05.238Z,12.30
2022-11-12T16:54:31.939Z,12.13
2022-11-12T16:56:58.573Z,12.16
2022-11-12T16:59:27.435Z,12.10
2022-11-12T17:01:53.998Z,12.04
2022-11-12T17:04:20.651Z,12.01
2022-11-12T17:06:47.191Z,11.99
2022-11-12T17:09:16.255Z,11.83
2022-11-12T17:11:43.048Z,11.94
2022-11-12T17:14:10.993Z,11.91
2022-11-12T17:16:39.805Z,11.88
2022-11-12T17:19:06.500Z,11.85
2022-11-12T17:21:33.082Z,11.82
2022-11-12T17:23:59.590Z,11.80
2022-11-12T17:26:26.160Z,11.78
2022-11-12T17:28:58.570Z,11.76
2022-11-12T17:31:28.089Z,11.75
2022-11-12T17:33:56.832Z,11.71
2022-11-12T17:36:25.911Z,11.60
2022-11-12T17:38:57.162Z,11.59
2022-11-12T17:41:23.991Z,11.60
2022-11-12T17:43:57.405Z,11.56
2022-11-12T17:46:23.985Z,11.53
2022-11-12T17:48:51.246Z,11.47
2022-11-12T17:51:20.528Z,11.46
2022-11-12T17:53:47.267Z,11.55
2022-11-12T17:56:16.324Z,11.45
2022-11-12T17:58:45.372Z,11.40
2022-11-12T18:01:15.310Z,11.36
2022-11-12T18:03:44.066Z,11.32
2022-11-12T18:06:16.578Z,11.28
2022-11-12T18:08:43.579Z,11.19
2022-11-12T18:11:14.370Z,11.18
2022-11-12T18:13:41.126Z,11.10
2022-11-12T18:16:16.389Z,11.04
2022-11-12T18:18:46.479Z,10.96
2022-11-12T18:21:13.326Z,10.95
2022-11-12T18:23:42.179Z,10.88
2022-11-12T18:26:08.789Z,10.81
2022-11-12T18:28:35.702Z,10.74
2022-11-12T18:31:04.454Z,10.69
2022-11-12T18:33:31.572Z,10.59
2022-11-12T18:36:06.783Z,10.58
2022-11-12T18:38:34.787Z,10.48
2022-11-12T18:41:10.070Z,10.50
2022-11-12T18:43:37.215Z,10.47
2022-11-12T18:46:04.804Z,10.45
2022-11-12T18:48:33.426Z,10.49
2022-11-12T18:51:02.516Z,10.40
2022-11-12T18:53:32.250Z,10.35
2022-11-12T18:56:02.133Z,10.68
2022-11-12T18:58:34.628Z,10.46
2022-11-12T19:01:10.413Z,10.35
2022-11-12T19:03:37.431Z,10.32
2022-11-12T19:06:07.261Z,10.28
2022-11-12T19:08:36.661Z,10.21
2022-11-12T19:11:05.891Z,10.18
2022-11-12T19:13:32.729Z,10.07
2022-11-12T19:16:07.482Z,10.05
2022-11-12T19:18:37.674Z,9.99
2022-11-12T19:21:07.691Z,10.01
2022-11-12T19:23:34.809Z,10.01
2022-11-12T19:26:02.767Z,10.00
2022-11-12T19:28:30.381Z,9.97
2022-11-12T19:31:03.703Z,9.93
2022-11-12T19:33:30.289Z,9.90
2022-11-12T19:36:06.734Z,9.85
2022-11-12T19:38:33.994Z,9.77
2022-11-12T19:41:17.769Z,9.75
2022-11-12T19:43:45.846Z,9.71
2022-11-12T19:46:12.422Z,9.68
2022-11-12T19:48:39.349Z,9.61
2022-11-12T19:51:08.753Z,9.61
2022-11-12T19:53:38.509Z,9.49
2022-11-12T19:56:06.685Z,9.47
2022-11-12T19:58:34.280Z,9.49
2022-11-12T20:01:06.209Z,9.46
2022-11-12T20:03:35.557Z,9.36
2022-11-12T20:06:05.093Z,9.55
2022-11-12T20:08:34.124Z,9.44
2022-11-12T20:11:01.791Z,9.39
2022-11-12T20:13:28.508Z,9.36
2022-11-12T20:15:55.266Z,9.27
2022-11-12T20:18:21.867Z,9.25
2022-11-12T20:20:51.039Z,9.25
2022-11-12T20:23:17.871Z,9.20
2022-11-12T20:25:44.357Z,9.14
2022-11-12T20:28:11.778Z,9.10
2022-11-12T20:30:38.471Z,9.01
2022-11-12T20:33:05.209Z,9.00
2022-11-12T20:35:40.063Z,9.02
2022-11-12T20:38:09.130Z,8.97
2022-11-12T20:40:35.681Z,8.92
2022-11-12T20:43:02.498Z,8.90
2022-11-12T20:45:31.318Z,8.88
2022-11-12T20:47:57.969Z,8.86
2022-11-12T20:50:24.776Z,8.81
2022-11-12T20:52:54.074Z,8.76
2022-11-12T20:55:20.723Z,8.75
2022-11-12T20:57:47.617Z,8.73
2022-11-12T21:00:22.896Z,8.70
2022-11-12T21:02:50.628Z,8.68
2022-11-12T21:05:19.639Z,8.66
2022-11-12T21:07:51.292Z,8.63
2022-11-12T21:10:20.336Z,8.59
2022-11-12T21:12:46.788Z,8.56
2022-11-12T21:15:16.022Z,8.49
2022-11-12T21:17:42.538Z,8.49
2022-11-12T21:20:09.535Z,8.45
2022-11-12T21:22:36.385Z,8.41
2022-11-12T21:25:03.083Z,8.38
2022-11-12T21:27:31.915Z,8.36
2022-11-12T21:29:58.938Z,8.36
2022-11-12T21:32:25.663Z,8.32
2022-11-12T21:34:58.581Z,8.29
2022-11-12T21:37:27.637Z,8.23
2022-11-12T21:39:54.123Z,8.26
2022-11-12T21:42:20.676Z,8.26
2022-11-12T21:44:47.523Z,8.24
2022-11-12T21:47:14.424Z,8.24
2022-11-12T21:49:43.227Z,8.26
2022-11-12T21:52:12.699Z,8.31
2022-11-12T21:54:40.254Z,8.34
2022-11-12T21:57:07.029Z,8.38
2022-11-12T21:59:33.613Z,8.40
2022-11-12T22:02:00.109Z,8.45
2022-11-12T22:04:29.341Z,8.44
2022-11-12T22:06:55.849Z,8.49
2022-11-12T22:09:22.364Z,8.52
2022-11-12T22:11:48.923Z,8.48
2022-11-12T22:14:15.795Z,8.52
2022-11-12T22:16:42.469Z,8.51
2022-11-12T22:19:09.740Z,8.46
2022-11-12T22:21:39.895Z,8.49
2022-11-12T22:24:07.524Z,8.41
2022-11-12T22:26:34.400Z,8.43
2022-11-12T22:29:01.137Z,8.36
2022-11-12T22:31:29.809Z,8.35
2022-11-12T22:33:58.310Z,8.35
2022-11-12T22:36:27.421Z,8.31
2022-11-12T22:38:54.860Z,8.30
2022-11-12T22:41:34.042Z,8.25
2022-11-12T22:44:02.772Z,8.24
2022-11-12T22:46:34.825Z,8.20
2022-11-12T22:49:03.693Z,8.16
2022-11-12T22:51:31.850Z,8.15
2022-11-12T22:54:01.231Z,8.08
2022-11-12T22:56:28.950Z,8.08
2022-11-12T22:58:58.475Z,8.06
2022-11-12T23:01:28.078Z,8.03
2022-11-12T23:03:57.339Z,8.00
2022-11-12T23:06:25.244Z,7.99
2022-11-12T23:08:53.486Z,7.92
2022-11-12T23:11:21.029Z,7.93
2022-11-12T23:13:48.409Z,7.90
2022-11-12T23:16:18.011Z,7.81
2022-11-12T23:18:47.412Z,7.78
2022-11-12T23:21:23.831Z,7.78
2022-11-12T23:23:50.959Z,7.76
2022-11-12T23:26:23.066Z,7.73
2022-11-12T23:28:50.589Z,7.71
2022-11-12T23:31:22.987Z,7.66
2022-11-12T23:33:55.122Z,7.68
2022-11-12T23:36:23.463Z,7.66
2022-11-12T23:38:51.239Z,7.63
2022-11-12T23:41:22.983Z,7.64
2022-11-12T23:43:50.312Z,7.62
2022-11-12T23:46:19.092Z,7.58
2022-11-12T23:48:46.038Z,7.58
2022-11-12T23:51:24.723Z,7.57
2022-11-12T23:53:51.420Z,7.57
2022-11-12T23:56:19.968Z,7.58
2022-11-12T23:58:46.921Z,7.58
